Time;durP1;ratioP1;P1;durP2;ratioP2;P2;SDS_P1;SDS_P2;PMS_P1;PMS_P2;Temp;Humidity;BMP_temperature;BMP_pressure;BME280_temperature;BME280_humidity;BME280_pressure;Samples;Min_cycle;Max_cycle;Signal;HPM_P1;HPM_P2
2022/05/10 00:00:57;;;;;;;5.28;2.58;;;12.10;99.90;;;;;;4809173;29;20126;-85
2022/05/10 00:03:36;;;;;;;4.40;1.80;;;11.50;99.90;;;;;;4815235;29;20062;-86
2022/05/10 00:06:03;;;;;;;2.85;1.77;;;11.40;99.90;;;;;;4805821;29;20055;-85
2022/05/10 00:08:29;;;;;;;3.15;1.40;;;11.40;99.90;;;;;;4789282;29;20055;-86
2022/05/10 00:10:56;;;;;;;2.92;1.63;;;11.40;99.90;;;;;;4808870;29;20053;-85
2022/05/10 00:13:23;;;;;;;4.88;1.80;;;11.40;99.90;;;;;;4809137;29;20055;-85
2022/05/10 00:15:50;;;;;;;2.58;1.67;;;11.30;99.90;;;;;;4789469;29;20496;-86
2022/05/10 00:18:17;;;;;;;3.15;1.52;;;11.40;99.90;;;;;;4806185;29;20050;-86
2022/05/10 00:20:45;;;;;;;2.38;1.30;;;11.40;99.90;;;;;;4805333;29;20050;-86
2022/05/10 00:23:11;;;;;;;4.45;1.30;;;12.00;99.90;;;;;;4805343;29;20449;-85
2022/05/10 00:25:38;;;;;;;2.95;1.38;;;11.50;99.90;;;;;;4789150;29;20059;-86
2022/05/10 00:28:05;;;;;;;2.30;1.20;;;11.50;99.90;;;;;;4805776;29;20047;-84
2022/05/10 00:30:31;;;;;;;3.35;1.42;;;11.50;99.90;;;;;;4805436;29;20065;-84
2022/05/10 00:32:57;;;;;;;4.13;1.25;;;11.50;99.90;;;;;;4817830;29;20073;-85
2022/05/10 00:35:26;;;;;;;4.80;1.52;;;11.40;99.90;;;;;;4798070;29;20135;-85
2022/05/10 00:37:55;;;;;;;4.93;1.55;;;12.30;99.90;;;;;;4807298;29;20469;-84
2022/05/10 00:40:25;;;;;;;7.07;1.67;;;11.40;99.90;;;;;;4793690;29;20176;-85
2022/05/10 00:43:20;;;;;;;4.28;2.10;;;11.40;99.90;;;;;;4806460;29;20066;-85
2022/05/10 00:46:00;;;;;;;3.50;1.40;;;12.40;99.90;;;;;;4786889;29;20566;-86
2022/05/10 00:48:41;;;;;;;8.60;2.30;;;11.40;99.90;;;;;;4794766;29;20161;-85
2022/05/10 00:51:38;;;;;;;5.45;1.80;;;11.40;99.90;;;;;;4798229;29;20195;-85
2022/05/10 00:54:33;;;;;;;3.20;1.88;;;11.50;99.90;;;;;;4789559;29;20492;-85
2022/05/10 00:57:04;;;;;;;4.22;1.80;;;11.50;99.90;;;;;;4791080;29;20488;-85
2022/05/10 01:00:17;;;;;;;3.25;1.40;;;11.50;99.90;;;;;;4809300;29;20089;-85
2022/05/10 01:02:45;;;;;;;2.42;1.30;;;11.50;99.90;;;;;;4721218;30;20431;-85
2022/05/10 01:05:27;;;;;;;2.70;1.63;;;11.70;99.90;;;;;;4732401;30;20423;-85
2022/05/10 01:08:21;;;;;;;2.72;1.60;;;11.50;99.90;;;;;;4731699;30;20106;-85
2022/05/10 01:11:27;;;;;;;4.78;1.75;;;11.50;99.90;;;;;;4716374;30;20122;-85
2022/05/10 01:13:59;;;;;;;3.92;1.75;;;11.40;99.90;;;;;;4702839;30;20112;-85
2022/05/10 01:16:25;;;;;;;5.82;1.80;;;11.30;99.90;;;;;;4704474;30;20053;-85
2022/05/10 01:18:53;;;;;;;8.45;2.63;;;11.30;99.90;;;;;;4704035;30;20062;-85
2022/05/10 01:21:57;;;;;;;6.07;2.25;;;11.30;99.90;;;;;;4709063;30;20062;-85
2022/05/10 01:24:43;;;;;;;3.70;1.92;;;11.20;99.90;;;;;;4656295;30;20054;-85
2022/05/10 01:27:30;;;;;;;4.82;1.88;;;11.20;99.90;;;;;;4663287;30;20541;-85
2022/05/10 01:30:11;;;;;;;4.90;1.83;;;11.20;99.90;;;;;;4665658;30;20064;-85
2022/05/10 01:35:36;;;;;;;6.43;2.05;;;11.30;99.90;;;;;;4660125;30;20062;-85
2022/05/10 01:38:10;;;;;;;5.68;1.90;;;10.90;99.90;;;;;;4672535;30;20089;-85
2022/05/10 01:40:45;;;;;;;4.10;1.90;;;11.10;99.90;;;;;;4717836;30;20056;-85
2022/05/10 01:43:34;;;;;;;5.78;3.45;;;11.00;99.90;;;;;;4717405;30;20064;-85
2022/05/10 01:46:10;;;;;;;4.97;2.00;;;11.00;99.90;;;;;;4703049;30;20064;-85
2022/05/10 01:48:38;;;;;;;3.35;1.92;;;11.00;99.90;;;;;;4717337;30;20077;-85
2022/05/10 01:51:12;;;;;;;4.13;2.42;;;11.00;99.90;;;;;;4752782;30;20414;-85
2022/05/10 01:53:40;;;;;;;8.85;3.60;;;11.00;99.90;;;;;;4738045;30;20048;-85
2022/05/10 01:56:28;;;;;;;3.67;2.20;;;11.60;99.90;;;;;;4736756;30;20117;-85
2022/05/10 01:58:54;;;;;;;3.67;2.17;;;11.00;99.90;;;;;;4723571;30;20406;-85
2022/05/10 02:01:29;;;;;;;7.13;1.98;;;10.90;99.90;;;;;;4796427;29;20521;-85
2022/05/10 02:04:15;;;;;;;5.05;2.30;;;10.90;99.90;;;;;;4808123;29;20059;-86
2022/05/10 02:06:49;;;;;;;3.60;1.70;;;10.90;99.90;;;;;;4807915;29;20054;-85
2022/05/10 02:10:02;;;;;;;3.58;2.08;;;10.90;99.90;;;;;;4802416;29;20068;-85
2022/05/10 02:12:46;;;;;;;4.35;1.77;;;10.90;99.90;;;;;;4730457;30;20049;-85
2022/05/10 02:15:21;;;;;;;4.68;2.13;;;10.90;99.90;;;;;;4734915;30;20434;-86
2022/05/10 02:17:57;;;;;;;3.97;1.83;;;11.50;99.90;;;;;;4734374;30;20067;-85
2022/05/10 02:20:54;;;;;;;6.22;2.17;;;10.60;99.90;;;;;;4734781;30;20439;-85
2022/05/10 02:23:28;;;;;;;2.83;1.65;;;11.00;99.90;;;;;;4719949;30;20061;-86
2022/05/10 02:26:01;;;;;;;7.53;1.85;;;11.00;99.90;;;;;;4719916;30;20056;-85
2022/05/10 02:28:29;;;;;;;3.65;1.73;;;11.00;99.90;;;;;;4734223;30;20523;-85
2022/05/10 02:31:00;;;;;;;2.65;1.38;;;11.00;99.90;;;;;;4719688;30;20068;-85
2022/05/10 02:33:29;;;;;;;4.90;1.58;;;11.20;99.90;;;;;;4719726;30;20131;-86
2022/05/10 02:36:00;;;;;;;2.05;1.40;;;11.00;99.90;;;;;;4719514;30;20071;-85
2022/05/10 02:38:31;;;;;;;2.75;1.48;;;11.00;99.90;;;;;;4732982;30;20532;-86
2022/05/10 02:41:00;;;;;;;4.10;1.65;;;11.00;99.90;;;;;;4734031;30;20143;-85
2022/05/10 02:43:32;;;;;;;2.58;1.40;;;11.10;99.90;;;;;;4719511;30;20067;-85
2022/05/10 02:45:59;;;;;;;2.40;1.38;;;11.10;99.90;;;;;;4733952;30;20423;-85
2022/05/10 02:48:33;;;;;;;3.80;1.20;;;11.10;99.90;;;;;;4783113;29;20055;-85
2022/05/10 02:50:59;;;;;;;2.83;1.30;;;11.10;99.90;;;;;;4806211;29;20058;-85
2022/05/10 02:53:26;;;;;;;2.75;1.08;;;11.60;99.90;;;;;;4807394;29;20050;-85
2022/05/10 02:56:02;;;;;;;2.28;1.15;;;11.30;99.90;;;;;;4790717;29;20102;-86
2022/05/10 02:58:48;;;;;;;1.42;0.90;;;11.30;99.90;;;;;;4807568;29;20057;-85
2022/05/10 03:01:24;;;;;;;1.23;0.85;;;11.40;99.90;;;;;;4806507;29;20059;-86
2022/05/10 03:03:50;;;;;;;1.98;1.05;;;11.50;99.90;;;;;;4807023;29;20531;-85
2022/05/10 03:06:18;;;;;;;1.88;1.05;;;11.60;99.90;;;;;;4806799;29;20054;-86
2022/05/10 03:08:45;;;;;;;1.85;0.98;;;11.60;99.90;;;;;;4807947;29;20145;-86
2022/05/10 03:11:11;;;;;;;3.15;1.10;;;11.80;99.90;;;;;;4807555;29;20433;-86
2022/05/10 03:13:37;;;;;;;1.85;0.90;;;11.70;99.90;;;;;;4812041;29;20062;-86
2022/05/10 03:16:03;;;;;;;3.05;0.98;;;11.90;99.90;;;;;;4806603;29;20543;-86
2022/05/10 03:18:29;;;;;;;4.20;1.38;;;11.90;99.90;;;;;;4807223;29;20199;-85
2022/05/10 03:20:54;;;;;;;1.77;1.00;;;11.60;99.90;;;;;;4806327;29;20149;-86
2022/05/10 03:23:20;;;;;;;1.00;0.70;;;12.10;99.90;;;;;;4806631;29;20461;-86
2022/05/10 03:25:46;;;;;;;3.53;1.10;;;12.10;99.90;;;;;;4806328;29;20055;-85
2022/05/10 03:28:12;;;;;;;2.08;1.05;;;12.10;99.90;;;;;;4807159;29;20050;-86
2022/05/10 03:30:38;;;;;;;2.50;1.10;;;12.00;99.90;;;;;;4806777;29;20138;-85
2022/05/10 03:33:04;;;;;;;1.75;1.25;;;11.70;99.90;;;;;;4812980;29;20066;-85
2022/05/10 03:35:30;;;;;;;1.83;1.10;;;12.00;99.90;;;;;;4800316;29;20450;-85
2022/05/10 03:37:55;;;;;;;2.28;1.17;;;11.90;99.90;;;;;;4809902;29;20119;-86
2022/05/10 03:40:21;;;;;;;3.80;1.67;;;12.20;99.90;;;;;;4806245;29;20059;-86
2022/05/10 03:42:49;;;;;;;2.20;1.02;;;11.90;99.90;;;;;;4805890;29;20092;-85
2022/05/10 03:45:18;;;;;;;2.47;1.25;;;11.80;99.90;;;;;;4790465;29;20098;-85
2022/05/10 03:47:45;;;;;;;2.60;1.52;;;11.90;99.90;;;;;;4789987;29;20208;-86
2022/05/10 03:50:12;;;;;;;2.00;1.30;;;11.90;99.90;;;;;;4774112;29;20066;-85
2022/05/10 03:52:40;;;;;;;3.60;1.65;;;11.90;99.90;;;;;;4789677;29;20070;-84
2022/05/10 03:55:08;;;;;;;3.22;1.33;;;12.10;99.90;;;;;;4790791;29;20054;-85
2022/05/10 03:57:34;;;;;;;2.45;1.10;;;11.90;99.90;;;;;;4813204;29;20055;-85
2022/05/10 04:00:00;;;;;;;2.78;1.67;;;11.90;99.90;;;;;;4805846;29;20570;-85
2022/05/10 04:02:26;;;;;;;2.58;1.10;;;12.80;99.90;;;;;;4805646;29;20051;-85
2022/05/10 04:04:52;;;;;;;3.20;1.17;;;12.10;99.90;;;;;;4790280;29;20164;-85
2022/05/10 04:07:18;;;;;;;3.75;2.13;;;12.20;99.90;;;;;;4789462;29;20551;-85
2022/05/10 04:09:44;;;;;;;1.83;1.00;;;12.30;99.90;;;;;;4790057;29;20143;-85
2022/05/10 04:12:10;;;;;;;2.35;1.33;;;13.10;99.90;;;;;;4788935;29;20130;-85
2022/05/10 04:14:35;;;;;;;3.65;1.85;;;12.40;99.90;;;;;;4812861;29;20100;-85
2022/05/10 04:17:01;;;;;;;2.90;1.45;;;12.50;99.90;;;;;;4805612;29;20059;-85
2022/05/10 04:19:27;;;;;;;3.63;1.08;;;12.60;99.90;;;;;;4791023;29;20134;-85
2022/05/10 04:21:53;;;;;;;2.67;1.20;;;12.60;99.90;;;;;;4811457;29;20057;-85
2022/05/10 04:24:20;;;;;;;1.70;0.90;;;13.40;99.90;;;;;;4774992;29;20055;-85
2022/05/10 04:26:47;;;;;;;2.28;1.35;;;12.80;99.90;;;;;;4789314;29;20063;-85
2022/05/10 04:29:13;;;;;;;2.47;0.80;;;13.30;99.90;;;;;;4805558;29;20122;-85
2022/05/10 04:31:39;;;;;;;2.20;0.93;;;12.80;99.90;;;;;;4805228;29;20137;-84
2022/05/10 04:34:05;;;;;;;2.42;0.73;;;12.90;99.90;;;;;;4796870;29;20090;-85
2022/05/10 04:36:30;;;;;;;2.22;1.20;;;12.90;99.90;;;;;;4796169;29;20089;-85
2022/05/10 04:38:56;;;;;;;3.95;1.10;;;13.00;99.90;;;;;;4789444;29;20054;-86
2022/05/10 04:41:26;;;;;;;2.15;1.02;;;13.00;99.90;;;;;;4788882;29;20058;-85
2022/05/10 04:43:56;;;;;;;2.92;1.15;;;13.10;99.90;;;;;;4806043;29;20054;-85
2022/05/10 04:46:21;;;;;;;3.50;1.17;;;13.10;99.90;;;;;;4804691;29;20055;-85
2022/05/10 04:48:47;;;;;;;1.73;1.00;;;13.20;99.90;;;;;;4814969;29;20058;-86
2022/05/10 04:51:13;;;;;;;4.38;0.90;;;13.20;99.90;;;;;;4812855;29;20099;-86
2022/05/10 04:53:39;;;;;;;2.05;1.17;;;13.20;99.90;;;;;;4789868;29;20481;-85
2022/05/10 04:56:05;;;;;;;2.90;1.10;;;13.20;99.90;;;;;;4805096;29;20055;-85
2022/05/10 04:58:31;;;;;;;4.28;1.42;;;13.30;99.90;;;;;;4795397;29;20134;-85
2022/05/10 05:01:07;;;;;;;2.80;1.42;;;13.30;99.90;;;;;;4811945;29;20066;-85
2022/05/10 05:03:32;;;;;;;3.75;1.33;;;13.30;99.90;;;;;;4818249;29;20058;-85
2022/05/10 05:05:58;;;;;;;2.42;1.20;;;13.30;99.90;;;;;;4801574;29;20061;-84
2022/05/10 05:08:24;;;;;;;2.38;1.20;;;13.30;99.90;;;;;;4805422;29;20067;-88
2022/05/10 05:10:52;;;;;;;3.05;1.30;;;13.40;99.90;;;;;;4805250;29;20170;-86
2022/05/10 05:13:18;;;;;;;1.83;1.23;;;13.40;99.90;;;;;;4804744;29;20051;-86
2022/05/10 05:15:43;;;;;;;2.03;1.08;;;13.40;99.90;;;;;;4788582;29;20221;-84
2022/05/10 05:18:09;;;;;;;2.38;1.50;;;13.50;99.90;;;;;;4804862;29;20117;-84
2022/05/10 05:20:37;;;;;;;3.45;1.52;;;13.50;99.90;;;;;;4804699;29;20054;-83
2022/05/10 05:23:08;;;;;;;3.53;1.50;;;13.50;99.90;;;;;;4800937;29;20412;-83
2022/05/10 05:25:38;;;;;;;2.55;1.30;;;13.60;99.90;;;;;;4808036;29;20059;-83
2022/05/10 05:28:05;;;;;;;4.60;1.50;;;13.60;99.90;;;;;;4798116;29;20043;-83
2022/05/10 05:30:31;;;;;;;2.92;1.20;;;13.60;99.90;;;;;;4804810;29;20061;-83
2022/05/10 05:32:57;;;;;;;3.55;1.48;;;13.70;99.90;;;;;;4804703;29;20184;-83
2022/05/10 05:35:22;;;;;;;2.75;1.33;;;13.70;99.90;;;;;;4805094;29;20050;-83
2022/05/10 05:37:48;;;;;;;2.28;1.00;;;13.90;99.90;;;;;;4804450;29;20058;-84
2022/05/10 05:40:16;;;;;;;2.30;1.10;;;13.80;99.90;;;;;;4795749;29;20141;-83
2022/05/10 05:42:42;;;;;;;2.45;1.25;;;13.90;99.90;;;;;;4805402;29;20063;-86
2022/05/10 05:45:10;;;;;;;4.53;1.58;;;14.00;99.90;;;;;;4799806;29;20047;-84
2022/05/10 05:47:37;;;;;;;2.28;1.13;;;14.00;99.90;;;;;;4804535;29;20070;-84
2022/05/10 05:50:04;;;;;;;2.47;1.17;;;14.50;99.90;;;;;;4788538;29;20428;-87
2022/05/10 05:52:31;;;;;;;2.05;1.00;;;14.60;99.90;;;;;;4811194;29;20505;-85
2022/05/10 05:54:56;;;;;;;2.28;1.05;;;14.20;99.90;;;;;;4796586;29;20498;-86
2022/05/10 05:57:22;;;;;;;2.92;1.17;;;14.20;99.90;;;;;;4794560;29;20063;-84
2022/05/10 05:59:51;;;;;;;2.50;1.10;;;14.20;99.90;;;;;;4804611;29;20055;-85
2022/05/10 06:02:19;;;;;;;3.15;1.48;;;14.30;99.90;;;;;;4804832;29;20051;-84
2022/05/10 06:04:45;;;;;;;3.47;1.27;;;14.30;99.90;;;;;;4804836;29;20126;-83
2022/05/10 06:07:11;;;;;;;2.60;1.20;;;14.40;99.90;;;;;;4775897;29;20480;-83
2022/05/10 06:09:37;;;;;;;1.88;1.00;;;14.50;99.90;;;;;;4809102;29;20142;-83
2022/05/10 06:12:04;;;;;;;2.17;0.90;;;14.50;99.90;;;;;;4804431;29;20094;-83
2022/05/10 06:14:30;;;;;;;1.85;1.23;;;14.60;99.90;;;;;;4791441;29;20058;-84
2022/05/10 06:16:57;;;;;;;2.25;1.30;;;14.70;99.90;;;;;;4814765;29;20465;-83
2022/05/10 06:19:23;;;;;;;2.70;1.10;;;14.80;99.90;;;;;;4807920;29;20058;-83
2022/05/10 06:21:50;;;;;;;2.33;1.10;;;14.90;99.90;;;;;;4818817;29;20046;-86
2022/05/10 06:24:16;;;;;;;4.90;1.52;;;15.00;99.90;;;;;;4807699;29;20059;-85
2022/05/10 06:26:41;;;;;;;3.33;1.50;;;15.30;99.90;;;;;;4807665;29;20100;-84
2022/05/10 06:29:07;;;;;;;2.50;1.25;;;15.30;99.90;;;;;;4807605;29;20078;-84
2022/05/10 06:31:33;;;;;;;2.05;1.13;;;15.50;99.90;;;;;;4791303;29;20062;-84
2022/05/10 06:33:59;;;;;;;3.67;1.20;;;15.70;99.90;;;;;;4790880;29;20138;-85
2022/05/10 06:36:24;;;;;;;2.63;1.30;;;15.90;99.90;;;;;;4794665;29;20066;-84
2022/05/10 06:38:50;;;;;;;5.03;2.05;;;16.10;99.90;;;;;;4811477;29;20386;-85
2022/05/10 06:41:16;;;;;;;2.42;1.50;;;16.40;99.90;;;;;;4807154;29;20150;-85
2022/05/10 06:43:42;;;;;;;3.40;1.50;;;16.60;99.90;;;;;;4807061;29;20501;-86
2022/05/10 06:46:17;;;;;;;4.53;1.98;;;16.80;99.90;;;;;;4791096;29;20508;-86
2022/05/10 06:48:46;;;;;;;9.23;2.50;;;17.10;99.90;;;;;;4804964;29;20093;-84
2022/05/10 06:51:14;;;;;;;3.03;2.03;;;17.20;99.90;;;;;;4809669;29;20066;-84
2022/05/10 06:53:41;;;;;;;4.70;1.95;;;17.40;99.90;;;;;;4807190;29;20055;-84
2022/05/10 06:56:09;;;;;;;9.07;2.90;;;17.70;99.90;;;;;;4796942;29;20142;-85
2022/05/10 06:58:37;;;;;;;4.05;1.85;;;17.90;99.90;;;;;;4812816;29;20051;-85
2022/05/10 07:01:07;;;;;;;8.05;2.25;;;18.00;99.90;;;;;;4807479;29;20454;-85
2022/05/10 07:03:34;;;;;;;4.72;2.25;;;18.20;99.90;;;;;;4813111;29;20147;-85
2022/05/10 07:06:03;;;;;;;5.53;2.95;;;18.40;99.90;;;;;;4807049;29;20457;-84
2022/05/10 07:08:29;;;;;;;4.88;2.30;;;18.60;99.90;;;;;;4807257;29;20106;-84
2022/05/10 07:10:55;;;;;;;3.40;1.92;;;18.60;99.90;;;;;;4790110;29;20066;-85
2022/05/10 07:13:24;;;;;;;6.47;2.65;;;18.80;99.90;;;;;;4806899;29;20055;-85
2022/05/10 07:15:51;;;;;;;4.45;1.92;;;18.80;99.90;;;;;;4806829;29;20627;-85
2022/05/10 07:18:18;;;;;;;3.33;1.40;;;18.90;99.90;;;;;;4806435;29;20486;-84
2022/05/10 07:20:44;;;;;;;3.90;1.67;;;19.10;99.90;;;;;;4809875;29;20122;-85
2022/05/10 07:23:11;;;;;;;4.07;1.42;;;19.10;99.90;;;;;;4809162;29;20412;-85
2022/05/10 07:25:37;;;;;;;3.15;1.27;;;19.30;99.90;;;;;;4799614;29;20054;-85
2022/05/10 07:28:06;;;;;;;3.55;1.80;;;19.30;99.90;;;;;;4794712;29;20080;-85
2022/05/10 07:30:33;;;;;;;3.53;1.85;;;19.40;99.90;;;;;;4806687;29;20063;-86
2022/05/10 07:32:59;;;;;;;8.45;2.03;;;19.60;99.90;;;;;;4789843;29;20531;-86
2022/05/10 07:38:12;;;;;;;6.57;2.15;;;19.80;99.90;;;;;;4809334;29;20058;-85
2022/05/10 07:40:39;;;;;;;6.93;2.38;;;20.00;99.90;;;;;;4797391;29;20438;-83
2022/05/10 07:43:05;;;;;;;5.03;1.88;;;20.20;99.90;;;;;;4806204;29;20115;-83
2022/05/10 07:45:33;;;;;;;6.07;2.38;;;20.30;99.90;;;;;;4789778;29;20051;-84
2022/05/10 07:47:59;;;;;;;8.25;2.70;;;20.40;99.90;;;;;;4806245;29;20066;-83
2022/05/10 07:50:25;;;;;;;8.02;2.38;;;20.50;99.90;;;;;;4812831;29;20058;-84
2022/05/10 07:52:51;;;;;;;8.00;2.40;;;20.60;99.80;;;;;;4806396;29;20050;-84
2022/05/10 07:55:18;;;;;;;6.03;2.47;;;20.70;99.90;;;;;;4790156;29;20425;-83
2022/05/10 07:57:44;;;;;;;4.80;2.20;;;20.70;99.90;;;;;;4813357;29;20130;-83
2022/05/10 08:00:16;;;;;;;6.22;1.92;;;20.70;99.90;;;;;;4806505;29;20141;-83
2022/05/10 08:02:44;;;;;;;7.78;2.90;;;20.70;99.90;;;;;;4806522;29;20085;-83
2022/05/10 08:05:12;;;;;;;5.10;1.80;;;20.60;99.90;;;;;;4806512;29;20138;-83
2022/05/10 08:07:38;;;;;;;3.85;1.60;;;20.60;99.90;;;;;;4775382;29;20141;-83
2022/05/10 08:10:04;;;;;;;5.93;1.65;;;20.60;99.90;;;;;;4806576;29;20137;-83
2022/05/10 08:12:30;;;;;;;2.70;1.63;;;20.70;99.90;;;;;;4806362;29;20465;-83
2022/05/10 08:14:56;;;;;;;4.93;1.65;;;20.70;99.90;;;;;;4806413;29;20412;-83
2022/05/10 08:17:22;;;;;;;5.35;1.80;;;20.80;99.90;;;;;;4806474;29;20061;-84
2022/05/10 08:19:50;;;;;;;4.40;1.35;;;20.80;99.90;;;;;;4789883;29;20055;-84
2022/05/10 08:22:16;;;;;;;5.25;1.75;;;20.90;99.90;;;;;;4806198;29;20501;-83
2022/05/10 08:24:42;;;;;;;4.07;1.70;;;21.00;99.90;;;;;;4806382;29;20062;-83
2022/05/10 08:27:07;;;;;;;2.63;1.42;;;21.10;99.90;;;;;;4806346;29;20070;-83
2022/05/10 08:29:33;;;;;;;3.60;1.30;;;21.30;99.90;;;;;;4789969;29;20090;-84
2022/05/10 08:31:59;;;;;;;4.90;1.88;;;21.20;99.90;;;;;;4806001;29;20059;-83
2022/05/10 08:34:25;;;;;;;5.28;1.33;;;21.20;99.90;;;;;;4806142;29;20054;-84
2022/05/10 08:36:51;;;;;;;5.00;1.40;;;21.30;99.80;;;;;;4789250;29;20416;-83
2022/05/10 08:39:17;;;;;;;4.32;1.10;;;21.30;99.90;;;;;;4805942;29;20420;-83
2022/05/10 08:41:48;;;;;;;3.28;1.50;;;21.40;99.90;;;;;;4805316;29;20062;-83
2022/05/10 08:44:15;;;;;;;4.82;1.27;;;21.50;99.90;;;;;;4795932;29;20058;-84
2022/05/10 08:46:46;;;;;;;3.00;1.02;;;21.50;99.50;;;;;;4812796;29;20111;-82
2022/05/10 08:49:20;;;;;;;3.88;1.20;;;21.70;99.90;;;;;;4811175;29;20051;-82
2022/05/10 08:51:47;;;;;;;4.20;1.20;;;21.80;99.90;;;;;;4812804;29;20137;-82
2022/05/10 08:54:13;;;;;;;2.25;0.98;;;21.80;99.90;;;;;;4812304;29;20292;-83
2022/05/10 08:56:53;;;;;;;4.65;1.45;;;21.90;98.70;;;;;;4805240;29;20077;-82
2022/05/10 08:59:49;;;;;;;3.95;1.55;;;21.90;98.90;;;;;;4805065;29;20119;-83
2022/05/10 09:02:18;;;;;;;3.38;1.00;;;22.00;99.90;;;;;;4809920;29;20065;-82
2022/05/10 09:05:08;;;;;;;2.70;1.30;;;22.00;98.80;;;;;;4805017;29;20047;-83
2022/05/10 09:07:59;;;;;;;2.28;1.02;;;22.00;99.30;;;;;;4798515;29;20050;-83
2022/05/10 09:10:43;;;;;;;3.08;1.20;;;22.00;99.60;;;;;;4717009;30;20144;-83
2022/05/10 09:13:15;;;;;;;2.88;0.90;;;22.00;98.70;;;;;;4731495;30;20060;-82
2022/05/10 09:15:50;;;;;;;3.63;1.00;;;22.10;98.80;;;;;;4732077;30;20064;-84
2022/05/10 09:18:21;;;;;;;2.67;1.00;;;22.10;99.70;;;;;;4731547;30;20064;-84
2022/05/10 09:21:05;;;;;;;1.70;1.00;;;22.10;98.00;;;;;;4732046;30;20143;-83
2022/05/10 09:23:58;;;;;;;3.28;1.10;;;22.20;98.50;;;;;;4732272;30;20060;-83
2022/05/10 09:26:32;;;;;;;2.78;1.23;;;22.20;98.10;;;;;;4732191;30;20144;-83
2022/05/10 09:29:08;;;;;;;4.25;1.40;;;22.20;96.60;;;;;;4731824;30;20057;-83
2022/05/10 09:37:13;;;;;;;3.85;1.10;;;22.50;95.50;;;;;;4732117;30;20072;-83
2022/05/10 09:39:57;;;;;;;2.13;0.93;;;22.50;96.70;;;;;;4731176;30;20056;-83
2022/05/10 09:42:33;;;;;;;4.72;1.10;;;22.70;96.20;;;;;;4717376;30;20101;-84
2022/05/10 09:45:01;;;;;;;1.85;1.02;;;22.70;95.60;;;;;;4731784;30;20060;-86
2022/05/10 09:47:27;;;;;;;2.67;1.20;;;22.80;95.40;;;;;;4767113;29;20062;-84
2022/05/10 09:49:54;;;;;;;2.60;1.10;;;23.00;95.80;;;;;;4808737;29;20051;-85
2022/05/10 09:52:27;;;;;;;3.67;1.23;;;23.30;95.30;;;;;;4809005;29;20061;-84
2022/05/10 09:54:56;;;;;;;3.08;1.00;;;23.50;93.70;;;;;;4809109;29;20062;-84
2022/05/10 09:57:37;;;;;;;3.17;1.27;;;23.80;92.40;;;;;;4808739;29;20051;-84
2022/05/10 10:00:11;;;;;;;3.92;1.10;;;24.00;92.60;;;;;;4808848;29;20051;-84
2022/05/10 10:02:39;;;;;;;5.90;1.52;;;24.00;92.10;;;;;;4807588;29;20105;-85
2022/05/10 10:05:28;;;;;;;1.70;1.08;;;24.00;91.50;;;;;;4808636;29;20054;-84
2022/05/10 10:07:56;;;;;;;5.05;2.08;;;23.80;91.60;;;;;;4792280;29;20066;-85
2022/05/10 10:10:27;;;;;;;3.83;1.77;;;23.60;91.00;;;;;;4808678;29;20055;-84
2022/05/10 10:12:53;;;;;;;5.15;1.52;;;23.40;90.40;;;;;;4808596;29;20055;-85
2022/05/10 10:15:42;;;;;;;4.25;1.30;;;23.40;90.80;;;;;;4808339;29;20138;-85
2022/05/10 10:18:11;;;;;;;4.40;1.42;;;23.20;90.30;;;;;;4808316;29;20119;-85
2022/05/10 10:20:54;;;;;;;4.75;1.45;;;23.20;91.40;;;;;;4808419;29;20066;-84
2022/05/10 10:23:23;;;;;;;3.65;1.80;;;23.20;91.60;;;;;;4808429;29;20051;-84
2022/05/10 10:25:52;;;;;;;2.47;1.15;;;23.30;92.30;;;;;;4808156;29;20122;-85
2022/05/10 10:28:50;;;;;;;7.78;2.30;;;23.10;92.60;;;;;;4808147;29;20058;-84
2022/05/10 10:31:32;;;;;;;5.22;1.58;;;23.30;92.40;;;;;;4792098;29;20413;-84
2022/05/10 10:34:07;;;;;;;5.03;1.98;;;23.30;93.30;;;;;;4808144;29;20051;-84
2022/05/10 10:36:50;;;;;;;3.72;2.00;;;23.40;92.40;;;;;;4807776;29;20058;-84
2022/05/10 10:39:34;;;;;;;6.18;1.70;;;23.30;92.20;;;;;;4808143;29;20412;-86
2022/05/10 10:42:05;;;;;;;5.10;2.75;;;23.30;92.70;;;;;;4807962;29;20102;-85
2022/05/10 10:44:37;;;;;;;2.55;1.30;;;23.40;93.40;;;;;;4777014;29;20107;-93
2022/05/10 10:47:45;;;;;;;5.07;2.15;;;23.40;94.30;;;;;;4808088;29;20063;-86
2022/05/10 10:50:19;;;;;;;3.92;2.08;;;23.30;93.10;;;;;;4798988;29;20188;-86
2022/05/10 10:52:45;;;;;;;6.33;2.33;;;23.50;93.40;;;;;;4825885;29;20656;-85
2022/05/10 10:55:11;;;;;;;3.60;1.98;;;23.40;93.50;;;;;;4802690;29;20130;-86
2022/05/10 10:57:49;;;;;;;7.10;2.15;;;23.50;93.30;;;;;;4807611;29;20063;-86
2022/05/10 11:00:21;;;;;;;4.88;2.38;;;23.40;94.40;;;;;;4806719;29;20115;-86
2022/05/10 11:03:00;;;;;;;4.20;2.55;;;23.40;94.70;;;;;;4791540;29;20401;-86
2022/05/10 11:05:47;;;;;;;2.92;1.40;;;23.30;92.70;;;;;;4791410;29;20055;-86
2022/05/10 11:08:31;;;;;;;6.55;2.22;;;23.20;93.70;;;;;;4773465;30;20486;-86
2022/05/10 11:11:30;;;;;;;5.57;1.85;;;23.10;93.50;;;;;;4773434;30;20055;-87
2022/05/10 11:14:07;;;;;;;3.67;2.33;;;23.10;93.40;;;;;;4769271;30;20502;-85
2022/05/10 11:16:52;;;;;;;3.38;1.40;;;22.90;93.70;;;;;;4754836;30;20190;-88
2022/05/10 11:19:50;;;;;;;2.47;1.00;;;22.90;92.90;;;;;;4754766;30;20064;-85
2022/05/10 11:22:27;;;;;;;6.85;1.40;;;22.90;93.70;;;;;;4734051;30;20216;-87
2022/05/10 11:25:23;;;;;;;2.65;1.08;;;23.00;93.70;;;;;;4734114;30;20514;-86
2022/05/10 11:28:21;;;;;;;3.45;1.20;;;23.00;93.90;;;;;;4719656;30;20147;-86
2022/05/10 11:30:46;;;;;;;4.75;1.10;;;23.00;92.60;;;;;;4718725;30;20089;-85
2022/05/10 11:33:18;;;;;;;4.72;1.23;;;23.00;92.80;;;;;;4733180;30;20057;-84
2022/05/10 11:35:56;;;;;;;2.40;1.08;;;23.00;93.50;;;;;;4716549;30;20088;-84
2022/05/10 11:38:59;;;;;;;3.45;0.90;;;23.00;93.60;;;;;;4732724;30;20053;-85
2022/05/10 11:41:33;;;;;;;5.07;1.42;;;23.00;93.50;;;;;;4718227;30;20068;-85
2022/05/10 11:44:37;;;;;;;1.75;0.77;;;22.90;93.40;;;;;;4718409;30;20060;-85
2022/05/10 11:47:36;;;;;;;2.00;1.35;;;23.00;95.00;;;;;;4680667;30;20108;-85
2022/05/10 11:50:27;;;;;;;2.83;1.00;;;23.20;92.80;;;;;;4679821;30;20115;-87
2022/05/10 11:53:09;;;;;;;3.78;1.25;;;23.10;94.40;;;;;;4666190;30;20058;-85
2022/05/10 11:56:02;;;;;;;3.58;1.40;;;23.10;94.20;;;;;;4680915;30;20050;-85
2022/05/10 11:58:30;;;;;;;4.32;1.98;;;23.00;94.20;;;;;;4686312;30;20053;-84
2022/05/10 12:01:01;;;;;;;4.82;2.10;;;22.90;93.20;;;;;;4715758;30;20132;-85
2022/05/10 12:03:36;;;;;;;6.55;1.95;;;23.20;94.60;;;;;;4715628;30;20103;-86
2022/05/10 12:06:23;;;;;;;3.83;2.10;;;23.30;93.50;;;;;;4715621;30;20087;-86
2022/05/10 12:08:54;;;;;;;6.75;2.70;;;23.60;94.30;;;;;;4708847;30;20053;-86
2022/05/10 12:11:28;;;;;;;6.40;2.83;;;23.70;93.70;;;;;;4700962;30;20559;-85
2022/05/10 12:22:46;;;;;;;5.88;1.90;;;23.90;93.30;;;;;;4767789;29;20046;-87
2022/05/10 12:25:44;;;;;;;9.95;2.40;;;24.10;94.20;;;;;;4787867;29;20493;-88
2022/05/10 12:28:30;;;;;;;5.63;2.17;;;24.20;94.90;;;;;;4783061;29;20066;-86
2022/05/10 12:30:56;;;;;;;5.75;2.42;;;24.30;95.30;;;;;;4774293;29;20058;-86
2022/05/10 12:33:35;;;;;;;6.00;1.70;;;24.50;93.80;;;;;;4807422;29;20400;-88
2022/05/10 12:36:11;;;;;;;3.90;1.25;;;24.60;93.70;;;;;;4807785;29;20091;-86
2022/05/10 12:38:49;;;;;;;2.17;1.05;;;24.50;93.20;;;;;;4789683;29;20050;-87
2022/05/10 12:41:44;;;;;;;6.15;1.92;;;24.50;93.30;;;;;;4812647;29;20059;-88
2022/05/10 12:44:46;;;;;;;4.50;1.52;;;24.30;91.90;;;;;;4789108;29;20138;-87
2022/05/10 12:47:39;;;;;;;3.13;1.48;;;24.30;92.60;;;;;;4719793;30;20060;-87
2022/05/10 12:50:37;;;;;;;2.17;1.23;;;24.10;93.00;;;;;;4735504;30;20165;-91
2022/05/10 12:53:41;;;;;;;;;;;;;;;;;;;;;
2022/05/10 12:56:13;;;;;;;4.40;1.60;;;23.90;93.30;;;;;;4712306;30;20061;-88
2022/05/10 12:58:46;;;;;;;3.40;1.20;;;23.70;93.80;;;;;;4699052;30;20565;-89
2022/05/10 13:01:14;;;;;;;4.80;1.30;;;23.70;94.00;;;;;;4710250;30;20084;-89
2022/05/10 13:03:46;;;;;;;3.08;1.10;;;23.80;92.70;;;;;;4699882;30;20114;-90
2022/05/10 13:06:19;;;;;;;2.63;1.08;;;23.70;87.40;;;;;;4699820;30;20148;-88
2022/05/10 13:09:02;;;;;;;1.75;0.70;;;23.70;87.70;;;;;;4714363;30;20053;-87
2022/05/10 13:11:37;;;;;;;1.35;0.77;;;23.60;82.40;;;;;;4699459;30;20174;-88
2022/05/10 13:14:04;;;;;;;1.38;0.68;;;23.50;81.90;;;;;;4700107;30;20539;-88
2022/05/10 13:16:30;;;;;;;4.75;0.77;;;23.40;83.20;;;;;;4699950;30;20424;-88
2022/05/10 13:18:56;;;;;;;5.60;0.90;;;23.40;84.50;;;;;;4714629;30;20120;-89
2022/05/10 13:21:25;;;;;;;1.45;0.70;;;23.40;84.90;;;;;;4700573;30;20238;-88
2022/05/10 13:23:53;;;;;;;3.47;0.80;;;23.30;85.20;;;;;;4733338;30;20481;-86
2022/05/10 13:26:19;;;;;;;3.65;0.80;;;23.10;84.40;;;;;;4759711;30;20063;-86
2022/05/10 13:28:54;;;;;;;3.15;0.77;;;23.00;84.60;;;;;;4764264;29;20083;-88
2022/05/10 13:31:26;;;;;;;3.75;0.90;;;23.00;87.30;;;;;;4793529;29;20059;-89
2022/05/10 13:34:07;;;;;;;1.02;0.60;;;22.90;89.90;;;;;;4793209;29;20137;-88
2022/05/10 13:36:32;;;;;;;0.98;0.30;;;22.90;86.70;;;;;;4793144;29;20054;-88